createdAt,value
2019-01-21T00:00:31.324Z,0.00
2019-01-21T00:01:31.323Z,0.00
2019-01-21T00:02:31.299Z,0.00
2019-01-21T00:03:31.290Z,0.00
2019-01-21T00:04:31.278Z,0.00
2019-01-21T00:05:31.264Z,0.00
2019-01-21T00:06:31.251Z,0.00
2019-01-21T00:07:31.239Z,0.00
2019-01-21T00:08:31.222Z,0.00
2019-01-21T00:09:31.215Z,0.00
2019-01-21T00:10:31.215Z,0.00
2019-01-21T00:11:31.191Z,0.00
2019-01-21T00:12:31.175Z,0.00
2019-01-21T00:13:31.162Z,0.00
2019-01-21T00:14:31.156Z,0.00
2019-01-21T00:15:31.189Z,0.00
2019-01-21T00:16:31.123Z,0.00
2019-01-21T00:17:31.153Z,0.00
2019-01-21T00:18:31.125Z,0.00
2019-01-21T00:19:31.091Z,0.00
2019-01-21T00:20:31.090Z,0.00
2019-01-21T00:21:31.073Z,0.00
2019-01-21T00:22:31.050Z,0.00
2019-01-21T00:23:31.040Z,0.00
2019-01-21T00:24:31.025Z,0.00
2019-01-21T00:25:31.012Z,0.00
2019-01-21T00:26:31.002Z,0.00
2019-01-21T00:27:30.991Z,0.00
2019-01-21T00:28:30.977Z,0.00
2019-01-21T00:29:30.965Z,0.00
2019-01-21T00:30:30.956Z,0.00
2019-01-21T00:31:30.937Z,0.00
2019-01-21T00:32:30.932Z,0.00
2019-01-21T00:33:30.915Z,0.00
2019-01-21T00:34:30.903Z,0.00
2019-01-21T00:35:30.890Z,0.00
2019-01-21T00:36:30.878Z,0.00
2019-01-21T00:37:30.871Z,0.00
2019-01-21T00:38:30.871Z,0.00
2019-01-21T00:39:30.844Z,0.00
2019-01-21T00:40:30.834Z,0.00
2019-01-21T00:41:30.826Z,0.00
2019-01-21T00:42:30.835Z,0.00
2019-01-21T00:43:30.794Z,0.00
2019-01-21T00:44:30.780Z,0.00
2019-01-21T00:45:30.768Z,0.00
2019-01-21T00:46:30.771Z,0.00
2019-01-21T00:47:30.748Z,0.00
2019-01-21T00:48:30.745Z,0.00
2019-01-21T00:49:30.720Z,0.00
2019-01-21T00:50:30.705Z,0.00
2019-01-21T00:51:30.697Z,0.00
2019-01-21T00:52:30.682Z,0.00
2019-01-21T00:53:30.680Z,0.00
2019-01-21T00:54:30.663Z,0.00
2019-01-21T00:55:30.646Z,0.00
2019-01-21T00:56:30.640Z,0.00
2019-01-21T00:57:30.644Z,0.00
2019-01-21T00:58:30.610Z,0.00
2019-01-21T00:59:30.598Z,0.00
2019-01-21T01:00:30.591Z,0.00
2019-01-21T01:01:30.574Z,0.00
2019-01-21T01:02:30.589Z,0.00
2019-01-21T01:03:30.551Z,0.00
2019-01-21T01:04:30.537Z,0.00
2019-01-21T01:05:30.527Z,0.00
2019-01-21T01:06:30.515Z,0.00
2019-01-21T01:07:30.501Z,0.00
2019-01-21T01:08:30.502Z,0.00
2019-01-21T01:09:30.476Z,0.00
2019-01-21T01:10:30.483Z,0.00
2019-01-21T01:11:30.473Z,0.00
2019-01-21T01:12:30.442Z,0.00
2019-01-21T01:13:30.432Z,0.00
2019-01-21T01:14:30.428Z,0.00
2019-01-21T01:15:30.407Z,0.00
2019-01-21T01:16:30.395Z,0.00
2019-01-21T01:17:33.366Z,0.00
2019-01-21T01:18:30.373Z,0.00
2019-01-21T01:19:30.376Z,0.00
2019-01-21T01:20:30.347Z,0.00
2019-01-21T01:21:30.334Z,0.00
2019-01-21T01:22:30.333Z,0.00
2019-01-21T01:23:30.314Z,0.00
2019-01-21T01:24:30.297Z,0.00
2019-01-21T01:25:30.287Z,0.00
2019-01-21T01:26:30.287Z,0.00
2019-01-21T01:27:30.260Z,0.00
2019-01-21T01:28:30.248Z,0.00
2019-01-21T01:29:30.239Z,0.00
2019-01-21T01:30:30.225Z,0.00
2019-01-21T01:31:30.214Z,0.00
2019-01-21T01:32:30.200Z,0.00
2019-01-21T01:33:30.192Z,0.00
2019-01-21T01:34:30.176Z,0.00
2019-01-21T01:35:30.167Z,0.00
2019-01-21T01:36:30.157Z,0.00
2019-01-21T01:37:30.154Z,0.00
2019-01-21T01:38:30.130Z,0.00
2019-01-21T01:39:30.117Z,0.00
2019-01-21T01:40:30.107Z,0.00
2019-01-21T01:41:30.092Z,0.00
2019-01-21T01:42:30.086Z,0.00
2019-01-21T01:43:30.070Z,0.00
2019-01-21T01:44:30.057Z,0.00
2019-01-21T01:45:30.047Z,0.00
2019-01-21T01:46:30.049Z,0.00
2019-01-21T01:47:30.042Z,0.00
2019-01-21T01:48:30.009Z,0.00
2019-01-21T01:49:29.999Z,0.00
2019-01-21T01:50:29.986Z,0.00
2019-01-21T01:51:29.977Z,0.00
2019-01-21T01:52:29.966Z,0.00
2019-01-21T01:53:29.949Z,0.00
2019-01-21T01:54:29.971Z,0.00
2019-01-21T01:55:29.944Z,0.00
2019-01-21T01:56:29.914Z,0.00
2019-01-21T01:57:29.917Z,0.00
2019-01-21T01:58:29.908Z,0.00
2019-01-21T01:59:29.898Z,0.00
2019-01-21T02:00:29.891Z,0.00
2019-01-21T02:01:29.869Z,0.00
2019-01-21T02:02:29.842Z,0.00
2019-01-21T02:03:29.832Z,0.00
2019-01-21T02:04:29.824Z,0.00
2019-01-21T02:05:29.820Z,0.00
2019-01-21T02:06:29.797Z,0.00
2019-01-21T02:07:29.805Z,0.00
2019-01-21T02:08:29.772Z,0.00
2019-01-21T02:09:29.760Z,0.00
2019-01-21T02:10:29.747Z,0.00
2019-01-21T02:11:29.768Z,0.00
2019-01-21T02:12:29.727Z,0.00
2019-01-21T02:13:29.711Z,0.00
2019-01-21T02:14:29.698Z,0.00
2019-01-21T02:15:29.713Z,0.00
2019-01-21T02:16:29.691Z,0.00
2019-01-21T02:17:29.683Z,0.00
2019-01-21T02:18:29.653Z,0.00
2019-01-21T02:19:29.651Z,0.00
2019-01-21T02:20:29.629Z,0.00
2019-01-21T02:21:29.617Z,0.00
2019-01-21T02:22:29.607Z,0.00
2019-01-21T02:23:29.605Z,0.00
2019-01-21T02:24:29.598Z,0.00
2019-01-21T02:25:29.580Z,0.00
2019-01-21T02:26:29.560Z,0.00
2019-01-21T02:27:29.558Z,0.00
2019-01-21T02:28:29.533Z,0.00
2019-01-21T02:29:29.524Z,0.00
2019-01-21T02:30:29.507Z,0.00
2019-01-21T02:31:29.505Z,0.00
2019-01-21T02:32:29.486Z,0.00
2019-01-21T02:33:29.470Z,0.00
2019-01-21T02:34:29.488Z,0.00
2019-01-21T02:35:29.474Z,0.00
2019-01-21T02:36:29.455Z,0.00
2019-01-21T02:37:29.434Z,0.00
2019-01-21T02:38:29.415Z,0.00
2019-01-21T02:39:29.397Z,0.00
2019-01-21T02:40:29.388Z,0.00
2019-01-21T02:41:29.382Z,0.00
2019-01-21T02:42:29.366Z,0.00
2019-01-21T02:43:29.353Z,0.00
2019-01-21T02:44:29.341Z,0.00
2019-01-21T02:45:29.333Z,0.00
2019-01-21T02:46:29.330Z,0.00
2019-01-21T02:47:29.317Z,0.00
2019-01-21T02:48:29.296Z,0.00
2019-01-21T02:49:29.276Z,0.00
2019-01-21T02:50:29.268Z,0.00
2019-01-21T02:51:29.254Z,0.00
2019-01-21T02:52:29.251Z,0.00
2019-01-21T02:53:29.251Z,0.00
2019-01-21T02:54:29.217Z,0.00
2019-01-21T02:55:29.213Z,0.00
2019-01-21T02:56:29.215Z,0.00
2019-01-21T02:57:29.202Z,0.00
2019-01-21T02:58:29.174Z,0.00
2019-01-21T02:59:29.176Z,0.00
2019-01-21T03:00:29.146Z,0.00
2019-01-21T03:01:29.143Z,0.00
2019-01-21T03:02:29.120Z,0.00
2019-01-21T03:03:29.109Z,0.00
2019-01-21T03:04:29.098Z,0.00
2019-01-21T03:05:29.087Z,0.00
2019-01-21T03:06:29.073Z,0.00
2019-01-21T03:07:29.060Z,0.00
2019-01-21T03:08:29.062Z,0.00
2019-01-21T03:09:29.035Z,0.00
2019-01-21T03:10:29.044Z,0.00
2019-01-21T03:11:29.011Z,0.00
2019-01-21T03:12:29.001Z,0.00
2019-01-21T03:13:28.987Z,0.00
2019-01-21T03:14:28.976Z,0.00
2019-01-21T03:15:28.993Z,0.00
2019-01-21T03:16:29.020Z,0.00
2019-01-21T03:17:28.939Z,0.00
2019-01-21T03:18:28.944Z,0.00
2019-01-21T03:19:28.925Z,0.00
2019-01-21T03:20:28.917Z,0.00
2019-01-21T03:21:28.891Z,0.00
2019-01-21T03:22:28.880Z,0.00
2019-01-21T03:23:28.871Z,0.00
2019-01-21T03:24:28.858Z,0.00
2019-01-21T03:25:28.873Z,0.00
2019-01-21T03:26:28.836Z,0.00
2019-01-21T03:27:28.819Z,0.00
2019-01-21T03:28:28.809Z,0.00
2019-01-21T03:29:28.810Z,0.00
2019-01-21T03:30:28.780Z,0.00
2019-01-21T03:31:28.778Z,0.00
2019-01-21T03:32:28.759Z,0.00
2019-01-21T03:33:28.751Z,0.00
2019-01-21T03:34:28.739Z,0.00
2019-01-21T03:35:28.724Z,0.00
2019-01-21T03:36:28.719Z,0.00
2019-01-21T03:37:28.708Z,0.00
2019-01-21T03:38:28.683Z,0.00
2019-01-21T03:39:28.673Z,0.00
2019-01-21T03:40:28.663Z,0.00
2019-01-21T03:41:28.711Z,0.00
2019-01-21T03:42:28.638Z,0.00
2019-01-21T03:43:28.623Z,0.00
2019-01-21T03:44:28.613Z,0.00
2019-01-21T03:45:28.653Z,0.00
2019-01-21T03:46:28.588Z,0.00
2019-01-21T03:47:28.586Z,0.00
2019-01-21T03:48:28.576Z,0.00
2019-01-21T03:49:28.557Z,0.00
2019-01-21T03:50:28.540Z,0.00
2019-01-21T03:51:28.526Z,0.00
2019-01-21T03:52:28.524Z,0.00
2019-01-21T03:53:28.501Z,0.00
2019-01-21T03:54:28.487Z,0.00
2019-01-21T03:55:28.476Z,0.00
2019-01-21T03:56:28.468Z,0.00
2019-01-21T03:57:28.453Z,0.00
2019-01-21T03:58:28.466Z,0.00
2019-01-21T03:59:28.428Z,0.00
2019-01-21T04:00:28.428Z,0.00
2019-01-21T04:01:28.405Z,0.00
2019-01-21T04:02:28.393Z,0.00
2019-01-21T04:03:28.379Z,0.00
2019-01-21T04:04:28.367Z,0.00
2019-01-21T04:05:28.352Z,0.00
2019-01-21T04:06:28.337Z,0.00
2019-01-21T04:07:28.330Z,0.00
2019-01-21T04:08:28.340Z,0.00
2019-01-21T04:09:28.322Z,0.00
2019-01-21T04:10:28.291Z,0.00
2019-01-21T04:11:28.286Z,0.00
2019-01-21T04:12:28.289Z,0.00
2019-01-21T04:13:28.257Z,0.00
2019-01-21T04:14:28.256Z,0.00
2019-01-21T04:15:28.232Z,0.00
2019-01-21T04:16:28.223Z,0.00
2019-01-21T04:17:28.217Z,0.00
2019-01-21T04:18:28.225Z,0.00
2019-01-21T04:19:28.182Z,0.00
2019-01-21T04:20:28.173Z,0.00
2019-01-21T04:21:28.159Z,0.00
2019-01-21T04:22:28.166Z,0.00
2019-01-21T04:23:28.130Z,0.00
2019-01-21T04:24:28.130Z,0.00
2019-01-21T04:25:28.105Z,0.00
2019-01-21T04:26:28.125Z,0.00
2019-01-21T04:27:28.100Z,0.00
2019-01-21T04:28:28.078Z,0.00
2019-01-21T04:29:28.061Z,0.00
2019-01-21T04:30:28.046Z,0.00
2019-01-21T04:31:28.037Z,0.00
2019-01-21T04:32:28.022Z,0.00
2019-01-21T04:33:28.016Z,0.00
2019-01-21T04:34:28.000Z,0.00
2019-01-21T04:35:27.987Z,0.00
2019-01-21T04:36:27.972Z,0.00
2019-01-21T04:37:27.959Z,0.00
2019-01-21T04:38:27.948Z,0.00
2019-01-21T04:39:27.935Z,0.00
2019-01-21T04:40:27.922Z,0.00
2019-01-21T04:41:27.930Z,0.00
2019-01-21T04:42:27.901Z,0.00
2019-01-21T04:43:27.897Z,0.00
2019-01-21T04:44:27.874Z,0.00
2019-01-21T04:45:27.877Z,0.00
2019-01-21T04:46:27.847Z,0.00
2019-01-21T04:47:27.837Z,0.00
2019-01-21T04:48:32.968Z,0.00
2019-01-21T04:49:27.810Z,0.00
2019-01-21T04:50:27.805Z,0.00
2019-01-21T04:51:27.800Z,0.00
2019-01-21T04:52:27.778Z,0.00
2019-01-21T04:53:27.761Z,0.00
2019-01-21T04:54:27.752Z,0.00
2019-01-21T04:55:27.770Z,0.00
2019-01-21T04:56:27.740Z,0.00
2019-01-21T04:57:27.712Z,0.00
2019-01-21T04:58:27.707Z,0.00
2019-01-21T04:59:27.695Z,0.00
2019-01-21T05:00:27.689Z,0.00
2019-01-21T05:01:27.666Z,0.00
2019-01-21T05:02:27.654Z,0.00
2019-01-21T05:03:27.638Z,0.00
2019-01-21T05:04:27.627Z,0.00
2019-01-21T05:05:27.613Z,0.00
2019-01-21T05:06:27.606Z,0.00
2019-01-21T05:07:27.613Z,0.00
2019-01-21T05:08:27.585Z,0.00
2019-01-21T05:09:27.588Z,0.00
2019-01-21T05:10:27.555Z,0.00
2019-01-21T05:11:27.570Z,0.00
2019-01-21T05:12:27.685Z,0.00
2019-01-21T05:13:27.528Z,0.00
2019-01-21T05:14:27.707Z,0.00
2019-01-21T05:15:27.496Z,0.00
2019-01-21T05:16:27.485Z,0.00
2019-01-21T05:17:27.477Z,0.00
2019-01-21T05:18:29.274Z,0.00
2019-01-21T05:19:34.770Z,0.00
2019-01-21T05:21:27.807Z,0.00
2019-01-21T05:22:20.793Z,0.00
2019-01-21T05:24:13.834Z,0.00
2019-01-21T05:25:21.153Z,0.00
2019-01-21T05:27:07.313Z,0.00
2019-01-21T05:28:06.574Z,0.00
2019-01-21T05:29:06.765Z,0.00
2019-01-21T05:45:10.504Z,0.00
2019-01-21T05:46:10.133Z,0.00
2019-01-21T05:48:03.579Z,0.00
2019-01-21T05:49:11.366Z,0.00
2019-01-21T05:50:57.480Z,0.00
2019-01-21T05:51:57.300Z,0.00
2019-01-21T05:53:50.602Z,0.00
2019-01-21T05:54:50.560Z,0.00
2019-01-21T05:56:44.073Z,0.00
2019-01-21T05:57:44.066Z,0.00
2019-01-21T05:59:36.796Z,0.00
2019-01-21T06:00:44.301Z,0.00
2019-01-21T07:48:15.156Z,11.25
2019-01-21T07:49:17.638Z,11.25
2019-01-21T07:51:07.748Z,11.25
2019-01-21T07:52:07.783Z,11.25
2019-01-21T07:54:01.087Z,11.25
2019-01-21T07:55:01.015Z,11.25
2019-01-21T07:56:54.917Z,11.25
2019-01-21T07:57:54.872Z,11.25
2019-01-21T07:59:47.718Z,11.25
2019-01-21T08:00:47.956Z,11.25
2019-01-21T08:02:41.284Z,11.25
2019-01-21T08:03:40.967Z,11.25
2019-01-21T08:04:40.939Z,16.88
2019-01-21T08:05:40.937Z,16.88
2019-01-21T08:06:41.020Z,16.88
2019-01-21T08:07:40.881Z,16.88
2019-01-21T08:08:40.863Z,16.88
2019-01-21T08:09:40.851Z,16.88
2019-01-21T08:10:40.834Z,16.88
2019-01-21T08:11:40.826Z,16.88
2019-01-21T08:12:40.815Z,16.88
2019-01-21T08:13:40.796Z,16.88
2019-01-21T08:14:40.802Z,16.88
2019-01-21T08:15:40.773Z,22.50
2019-01-21T08:16:40.760Z,22.50
2019-01-21T08:17:40.747Z,22.50
2019-01-21T08:18:40.735Z,22.50
2019-01-21T08:19:40.728Z,22.50
2019-01-21T08:20:40.711Z,22.50
2019-01-21T08:21:40.698Z,22.50
2019-01-21T08:22:40.686Z,28.13
2019-01-21T08:23:40.676Z,28.13
2019-01-21T08:24:40.662Z,28.13
2019-01-21T08:25:40.668Z,28.13
2019-01-21T08:26:40.700Z,28.13
2019-01-21T08:27:40.640Z,28.13
2019-01-21T08:28:40.615Z,28.13
2019-01-21T08:29:40.600Z,28.13
2019-01-21T08:30:40.602Z,28.13
2019-01-21T08:31:40.576Z,33.75
2019-01-21T08:32:40.566Z,33.75
2019-01-21T08:33:40.563Z,33.75
2019-01-21T08:34:40.542Z,33.75
2019-01-21T08:35:40.529Z,33.75
2019-01-21T08:36:40.520Z,33.75
2019-01-21T08:37:40.546Z,39.38
2019-01-21T08:38:40.496Z,39.38
2019-01-21T08:39:40.489Z,39.38
2019-01-21T08:40:40.514Z,39.38
2019-01-21T08:41:40.460Z,39.38
2019-01-21T08:42:40.451Z,39.38
2019-01-21T08:43:40.450Z,39.38
2019-01-21T08:44:40.432Z,39.38
2019-01-21T08:45:40.427Z,39.38
2019-01-21T08:46:40.403Z,39.38
2019-01-21T08:47:40.392Z,33.75
2019-01-21T08:48:40.379Z,33.75
2019-01-21T08:49:40.368Z,33.75
2019-01-21T08:50:40.386Z,33.75
2019-01-21T08:51:40.344Z,39.38
2019-01-21T08:52:40.332Z,39.38
2019-01-21T08:53:40.320Z,33.75
2019-01-21T08:54:40.377Z,33.75
2019-01-21T08:55:40.354Z,33.75
2019-01-21T08:56:40.349Z,33.75
2019-01-21T08:57:40.330Z,33.75
2019-01-21T08:58:40.296Z,33.75
2019-01-21T08:59:40.253Z,39.38
2019-01-21T09:00:40.274Z,39.38
2019-01-21T09:01:40.232Z,39.38
2019-01-21T09:02:40.249Z,39.38
2019-01-21T09:03:42.105Z,39.38
2019-01-21T09:04:40.207Z,39.38
2019-01-21T09:05:40.193Z,39.38
2019-01-21T09:06:40.202Z,39.38
2019-01-21T09:07:40.192Z,39.38
2019-01-21T09:08:40.249Z,39.38
2019-01-21T09:11:39.947Z,39.38
2019-01-21T09:12:32.611Z,39.38
2019-01-21T09:14:26.250Z,39.38
2019-01-21T09:16:56.233Z,39.38
2019-01-21T09:17:49.498Z,39.38
2019-01-21T09:18:49.092Z,39.38
2019-01-21T09:19:48.937Z,45.00
2019-01-21T09:20:48.897Z,45.00
2019-01-21T09:21:50.230Z,45.00
2019-01-21T09:22:57.468Z,45.00
2019-01-21T09:23:49.158Z,45.00
2019-01-21T09:24:56.851Z,45.00
2019-01-21T09:26:45.860Z,45.00
2019-01-21T09:29:24.088Z,45.00
2019-01-21T09:30:25.800Z,45.00
2019-01-21T09:32:34.035Z,45.00
2019-01-21T09:33:17.193Z,50.63
2019-01-21T09:34:17.012Z,50.63
2019-01-21T09:35:17.005Z,50.63
2019-01-21T09:36:17.003Z,50.63
2019-01-21T09:37:18.429Z,50.63
2019-01-21T09:40:07.255Z,50.63
2019-01-21T09:41:08.152Z,45.00
2019-01-21T09:42:06.947Z,45.00
2019-01-21T09:43:07.233Z,45.00
2019-01-21T09:44:06.839Z,45.00
2019-01-21T09:45:06.831Z,45.00
2019-01-21T09:46:06.802Z,45.00
2019-01-21T09:47:06.829Z,45.00
2019-01-21T09:48:06.810Z,45.00
2019-01-21T09:49:06.751Z,50.63
2019-01-21T09:50:15.180Z,50.63
2019-01-21T09:53:41.849Z,50.63
2019-01-21T09:54:40.646Z,50.63
2019-01-21T09:56:35.598Z,50.63
2019-01-21T09:57:35.627Z,50.63
2019-01-21T09:58:35.722Z,50.63
2019-01-21T09:59:35.542Z,50.63
2019-01-21T10:00:35.525Z,50.63
2019-01-21T10:01:35.684Z,56.25
2019-01-21T10:02:35.221Z,56.25
2019-01-21T10:03:35.230Z,56.25
2019-01-21T10:04:35.248Z,56.25
2019-01-21T10:05:35.234Z,56.25
2019-01-21T10:06:35.236Z,56.25
2019-01-21T10:07:35.216Z,56.25
2019-01-21T10:08:35.186Z,56.25
2019-01-21T10:09:35.191Z,56.25
2019-01-21T10:10:35.176Z,56.25
2019-01-21T10:11:35.169Z,56.25
2019-01-21T10:12:35.106Z,56.25
2019-01-21T10:13:35.113Z,56.25
2019-01-21T10:14:35.137Z,56.25
2019-01-21T10:15:35.072Z,56.25
2019-01-21T10:16:35.075Z,56.25
2019-01-21T10:17:35.106Z,56.25
2019-01-21T10:18:35.095Z,56.25
2019-01-21T10:19:35.023Z,56.25
2019-01-21T10:20:35.014Z,56.25
2019-01-21T10:21:35.060Z,61.88
2019-01-21T10:22:34.995Z,61.88
2019-01-21T10:23:34.985Z,61.88
2019-01-21T10:24:34.969Z,61.88
2019-01-21T10:25:34.969Z,61.88
2019-01-21T10:26:34.960Z,67.50
2019-01-21T10:27:34.940Z,67.50
2019-01-21T10:28:34.929Z,67.50
2019-01-21T10:29:34.917Z,67.50
2019-01-21T10:30:34.913Z,67.50
2019-01-21T10:31:34.916Z,67.50
2019-01-21T10:32:34.902Z,67.50
2019-01-21T10:33:34.878Z,67.50
2019-01-21T10:34:34.867Z,67.50
2019-01-21T10:35:34.859Z,67.50
2019-01-21T10:36:36.778Z,67.50
2019-01-21T10:37:34.882Z,67.50
2019-01-21T10:38:34.906Z,73.13
2019-01-21T10:39:34.832Z,73.13
2019-01-21T10:40:46.427Z,73.13
2019-01-21T10:43:33.501Z,78.75
2019-01-21T10:44:16.045Z,78.75
2019-01-21T10:47:08.601Z,78.75
2019-01-21T10:47:57.730Z,73.13
2019-01-21T10:50:39.953Z,73.13
2019-01-21T10:51:39.901Z,73.13
2019-01-21T10:53:33.433Z,73.13
2019-01-21T10:54:33.928Z,73.13
2019-01-21T10:56:26.703Z,73.13
2019-01-21T10:57:26.706Z,73.13
2019-01-21T10:58:26.539Z,73.13
2019-01-21T10:59:26.716Z,73.13
2019-01-21T11:00:26.531Z,73.13
2019-01-21T11:01:26.693Z,73.13
2019-01-21T11:02:34.413Z,73.13
2019-01-21T11:03:26.540Z,73.13
2019-01-21T11:04:43.174Z,73.13
2019-01-21T11:05:26.249Z,78.75
2019-01-21T11:06:26.246Z,78.75
2019-01-21T11:07:26.247Z,84.38
2019-01-21T11:08:26.366Z,84.38
2019-01-21T11:09:26.716Z,84.38
2019-01-21T11:10:26.341Z,90.00
2019-01-21T11:11:26.408Z,90.00
2019-01-21T11:12:26.205Z,90.00
2019-01-21T11:13:26.180Z,90.00
2019-01-21T11:14:26.164Z,95.63
2019-01-21T11:15:26.154Z,95.63
2019-01-21T11:16:26.150Z,95.63
2019-01-21T11:17:26.135Z,101.25
2019-01-21T11:18:26.126Z,101.25
2019-01-21T11:19:26.121Z,101.25
2019-01-21T11:20:26.106Z,101.25
2019-01-21T11:21:26.102Z,101.25
2019-01-21T11:22:26.089Z,101.25
2019-01-21T11:23:26.117Z,106.88
2019-01-21T11:24:26.069Z,112.50
2019-01-21T11:25:26.064Z,112.50
2019-01-21T11:26:26.048Z,112.50
2019-01-21T11:27:26.041Z,112.50
2019-01-21T11:28:26.057Z,112.50
2019-01-21T11:29:26.037Z,112.50
2019-01-21T11:30:26.051Z,118.13
2019-01-21T11:31:26.020Z,123.75
2019-01-21T11:32:26.033Z,129.38
2019-01-21T11:33:26.000Z,146.25
2019-01-21T11:34:26.048Z,191.25
2019-01-21T11:35:26.029Z,185.63
2019-01-21T11:36:26.010Z,219.38
2019-01-21T11:37:26.004Z,196.88
2019-01-21T11:38:25.976Z,196.88
2019-01-21T11:39:25.944Z,202.50
2019-01-21T11:40:33.342Z,202.50
2019-01-21T11:42:19.532Z,219.38
2019-01-21T11:43:19.602Z,225.00
2019-01-21T11:45:14.060Z,236.25
2019-01-21T11:46:12.809Z,236.25
2019-01-21T11:48:06.755Z,247.50
2019-01-21T11:49:06.681Z,236.25
2019-01-21T11:50:59.607Z,230.63
2019-01-21T11:51:59.627Z,236.25
2019-01-21T11:53:52.340Z,236.25
2019-01-21T11:54:52.234Z,241.88
2019-01-21T11:56:45.629Z,247.50
2019-01-21T11:57:45.641Z,264.38
2019-01-21T11:59:39.292Z,241.88
2019-01-21T12:00:39.057Z,236.25
2019-01-21T12:02:32.514Z,219.38
2019-01-21T12:03:32.579Z,219.38
2019-01-21T12:05:25.920Z,236.25
2019-01-21T12:06:26.023Z,236.25
2019-01-21T12:08:19.220Z,225.00
2019-01-21T12:09:19.285Z,208.13
2019-01-21T12:11:12.161Z,202.50
2019-01-21T12:12:11.960Z,196.88
2019-01-21T12:14:05.944Z,185.63
2019-01-21T12:15:05.839Z,185.63
2019-01-21T12:18:30.793Z,168.75
2019-01-21T12:19:30.697Z,163.13
2019-01-21T12:21:24.217Z,151.88
2019-01-21T12:22:25.677Z,146.25
2019-01-21T12:23:32.337Z,146.25
2019-01-21T12:25:19.507Z,151.88
2019-01-21T12:26:19.888Z,157.50
2019-01-21T12:28:11.659Z,168.75
2019-01-21T12:29:10.912Z,180.00
2019-01-21T12:30:10.662Z,191.25
2019-01-21T12:31:10.687Z,196.88
2019-01-21T12:32:10.579Z,202.50
2019-01-21T12:33:10.489Z,196.88
2019-01-21T12:34:10.496Z,191.25
2019-01-21T12:35:10.508Z,191.25
2019-01-21T12:36:10.474Z,180.00
2019-01-21T12:37:10.484Z,180.00
2019-01-21T12:38:10.465Z,180.00
2019-01-21T12:39:10.439Z,174.38
2019-01-21T12:40:10.427Z,168.75
2019-01-21T12:41:10.429Z,157.50
2019-01-21T12:42:10.410Z,157.50
2019-01-21T12:43:10.403Z,157.50
2019-01-21T12:44:10.415Z,151.88
2019-01-21T12:45:10.387Z,151.88
2019-01-21T12:46:10.376Z,151.88
2019-01-21T12:47:10.371Z,151.88
2019-01-21T12:48:10.361Z,151.88
2019-01-21T12:49:10.354Z,146.25
2019-01-21T12:50:10.344Z,146.25
2019-01-21T12:51:10.338Z,146.25
2019-01-21T12:52:10.327Z,146.25
2019-01-21T12:53:10.315Z,140.63
2019-01-21T12:54:10.308Z,140.63
2019-01-21T12:55:10.300Z,140.63
2019-01-21T12:56:10.310Z,140.63
2019-01-21T12:57:10.284Z,140.63
2019-01-21T12:58:10.273Z,140.63
2019-01-21T12:59:15.939Z,135.00
2019-01-21T13:00:10.255Z,135.00
2019-01-21T13:01:10.245Z,135.00
2019-01-21T13:02:10.248Z,140.63
2019-01-21T13:03:10.229Z,140.63
2019-01-21T13:04:10.226Z,140.63
2019-01-21T13:05:10.251Z,140.63
2019-01-21T13:06:10.294Z,135.00
2019-01-21T13:07:10.205Z,135.00
2019-01-21T13:08:10.183Z,135.00
2019-01-21T13:09:10.196Z,135.00
2019-01-21T13:10:17.540Z,135.00
2019-01-21T13:12:03.859Z,135.00
2019-01-21T13:13:03.119Z,135.00
2019-01-21T13:14:57.288Z,129.38
2019-01-21T13:15:56.567Z,129.38
2019-01-21T13:17:49.813Z,123.75
2019-01-21T13:18:49.615Z,123.75
2019-01-21T13:20:44.422Z,118.13
2019-01-21T13:21:43.584Z,112.50
2019-01-21T13:23:37.942Z,112.50
2019-01-21T13:24:37.823Z,112.50
2019-01-21T13:26:31.313Z,101.25
2019-01-21T13:27:31.764Z,106.88
2019-01-21T13:28:31.429Z,101.25
2019-01-21T13:29:30.785Z,106.88
2019-01-21T13:30:30.708Z,112.50
2019-01-21T13:32:53.041Z,118.13
2019-01-21T13:33:53.139Z,118.13
2019-01-21T13:34:53.037Z,118.13
2019-01-21T13:35:53.009Z,118.13
2019-01-21T13:36:54.677Z,123.75
2019-01-21T13:37:52.871Z,129.38
2019-01-21T13:38:53.125Z,129.38
2019-01-21T13:39:54.510Z,129.38
2019-01-21T13:40:52.771Z,123.75
2019-01-21T13:43:46.763Z,112.50
2019-01-21T13:44:46.391Z,112.50
2019-01-21T13:48:14.288Z,112.50
2019-01-21T13:49:17.314Z,118.13
2019-01-21T13:50:17.326Z,123.75
2019-01-21T13:52:50.433Z,129.38
2019-01-21T13:53:41.044Z,129.38
2019-01-21T13:54:39.414Z,135.00
2019-01-21T13:55:39.108Z,135.00
2019-01-21T13:58:32.013Z,129.38
2019-01-21T13:59:27.029Z,129.38
2019-01-21T14:01:22.131Z,129.38
2019-01-21T14:02:20.258Z,129.38
2019-01-21T14:03:20.879Z,129.38
2019-01-21T14:04:20.090Z,123.75
2019-01-21T14:05:21.177Z,123.75
2019-01-21T14:06:19.997Z,129.38
2019-01-21T14:07:20.827Z,129.38
2019-01-21T14:08:48.517Z,129.38
2019-01-21T14:09:19.905Z,129.38
2019-01-21T14:10:19.776Z,129.38
2019-01-21T14:11:19.732Z,129.38
2019-01-21T14:12:20.934Z,135.00
2019-01-21T14:13:28.449Z,135.00
2019-01-21T14:14:21.598Z,135.00
2019-01-21T14:15:19.871Z,135.00
2019-01-21T14:17:19.732Z,140.63
2019-01-21T14:18:19.694Z,140.63
2019-01-21T14:19:19.712Z,140.63
2019-01-21T14:20:19.806Z,146.25
2019-01-21T14:21:19.949Z,146.25
2019-01-21T14:22:19.921Z,151.88
2019-01-21T14:23:25.199Z,151.88
2019-01-21T14:24:20.087Z,163.13
2019-01-21T14:25:19.586Z,230.63
2019-01-21T14:26:20.261Z,354.38
2019-01-21T14:27:19.596Z,399.38
2019-01-21T14:28:19.576Z,236.25
2019-01-21T14:29:19.598Z,146.25
2019-01-21T14:30:19.598Z,140.63
2019-01-21T14:31:19.585Z,135.00
2019-01-21T14:32:19.623Z,123.75
2019-01-21T14:33:19.560Z,123.75
2019-01-21T14:34:19.648Z,118.13
2019-01-21T14:35:19.584Z,118.13
2019-01-21T14:36:19.634Z,112.50
2019-01-21T14:37:19.544Z,118.13
2019-01-21T14:38:19.574Z,135.00
2019-01-21T14:39:19.573Z,129.38
2019-01-21T14:40:19.579Z,123.75
2019-01-21T14:41:19.571Z,129.38
2019-01-21T14:42:19.611Z,135.00
2019-01-21T14:43:19.611Z,135.00
2019-01-21T14:44:19.574Z,129.38
2019-01-21T14:45:19.493Z,123.75
2019-01-21T14:46:19.567Z,123.75
2019-01-21T14:47:19.494Z,118.13
2019-01-21T14:48:20.546Z,118.13
2019-01-21T14:49:19.522Z,112.50
2019-01-21T14:50:19.551Z,101.25
2019-01-21T14:51:19.456Z,95.63
2019-01-21T14:52:19.483Z,84.38
2019-01-21T14:53:19.655Z,90.00
2019-01-21T14:54:19.548Z,95.63
2019-01-21T14:55:20.496Z,112.50
2019-01-21T14:56:19.477Z,303.75
2019-01-21T14:57:23.855Z,506.25
2019-01-21T14:58:19.525Z,545.63
2019-01-21T15:00:26.108Z,241.88
2019-01-21T15:01:13.552Z,84.38
2019-01-21T15:02:13.632Z,33.75
2019-01-21T15:03:24.082Z,28.13
2019-01-21T15:04:14.638Z,28.13
2019-01-21T15:05:14.404Z,28.13
2019-01-21T15:06:13.475Z,28.13
2019-01-21T15:07:15.453Z,28.13
2019-01-21T15:08:13.433Z,28.13
2019-01-21T15:09:13.304Z,22.50
2019-01-21T15:10:14.941Z,22.50
2019-01-21T15:12:48.852Z,22.50
2019-01-21T15:13:46.158Z,22.50
2019-01-21T15:14:46.160Z,22.50
2019-01-21T15:15:53.940Z,22.50
2019-01-21T15:17:47.300Z,16.88
2019-01-21T15:18:51.491Z,16.88
2019-01-21T15:20:43.552Z,16.88
2019-01-21T15:21:38.529Z,16.88
2019-01-21T15:22:38.247Z,16.88
2019-01-21T15:23:38.140Z,16.88
2019-01-21T15:24:38.415Z,11.25
2019-01-21T15:25:38.134Z,11.25
2019-01-21T15:26:38.246Z,11.25
2019-01-21T15:27:38.100Z,11.25
2019-01-21T15:28:38.097Z,11.25
2019-01-21T15:29:38.228Z,11.25
2019-01-21T15:30:38.084Z,11.25
2019-01-21T15:31:38.051Z,11.25
2019-01-21T15:32:37.984Z,11.25
2019-01-21T15:33:38.347Z,11.25
2019-01-21T15:34:37.953Z,5.63
2019-01-21T15:35:37.954Z,5.63
2019-01-21T15:36:38.203Z,5.63
2019-01-21T15:37:38.352Z,5.63
2019-01-21T15:38:38.036Z,5.63
2019-01-21T15:39:38.042Z,5.63
2019-01-21T15:40:37.950Z,5.63
2019-01-21T15:41:37.962Z,5.63
2019-01-21T15:42:38.038Z,5.63
2019-01-21T15:43:37.942Z,5.63
2019-01-21T15:44:37.964Z,5.63
2019-01-21T15:45:37.892Z,5.63
2019-01-21T15:46:37.840Z,0.00
2019-01-21T15:47:37.824Z,0.00
2019-01-21T15:48:37.822Z,0.00
2019-01-21T15:49:37.801Z,0.00
2019-01-21T15:50:37.794Z,0.00
2019-01-21T15:51:45.209Z,0.00
2019-01-21T15:53:30.898Z,0.00
2019-01-21T15:54:30.893Z,0.00
2019-01-21T15:56:24.556Z,0.00
2019-01-21T15:57:24.395Z,0.00
2019-01-21T15:58:32.336Z,0.00
2019-01-21T15:59:24.235Z,0.00
2019-01-21T16:00:24.423Z,0.00
2019-01-21T16:01:24.360Z,0.00
2019-01-21T16:02:24.231Z,0.00
2019-01-21T16:03:24.003Z,0.00
2019-01-21T16:04:23.932Z,0.00
2019-01-21T16:05:23.921Z,0.00
2019-01-21T16:06:23.929Z,0.00
2019-01-21T16:07:23.896Z,0.00
2019-01-21T16:08:23.906Z,0.00
2019-01-21T16:09:23.903Z,0.00